createdAt,value
2022-09-03T00:03:15.858Z,8.70
2022-09-03T00:08:23.581Z,8.60
2022-09-03T00:13:32.240Z,8.50
2022-09-03T00:18:36.079Z,8.40
2022-09-03T00:23:38.066Z,8.40
2022-09-03T00:28:45.444Z,8.30
2022-09-03T00:33:49.690Z,8.20
2022-09-03T00:38:49.505Z,8.10
2022-09-03T00:44:15.812Z,8.00
2022-09-03T00:49:31.306Z,8.00
2022-09-03T00:54:41.880Z,7.90
2022-09-03T00:59:51.879Z,7.88
2022-09-03T01:05:09.726Z,7.80
2022-09-03T01:10:24.390Z,7.76
2022-09-03T01:15:37.229Z,7.70
2022-09-03T01:20:51.371Z,7.60
2022-09-03T01:26:03.228Z,7.60
2022-09-03T01:31:17.646Z,7.50
2022-09-03T01:36:26.626Z,7.50
2022-09-03T01:42:00.420Z,7.40
2022-09-03T01:47:13.847Z,7.30
2022-09-03T01:52:21.722Z,7.30
2022-09-03T01:57:57.620Z,7.22
2022-09-03T02:03:04.686Z,7.20
2022-09-03T02:08:07.864Z,7.16
2022-09-03T02:13:17.510Z,7.10
2022-09-03T02:18:22.523Z,7.10
2022-09-03T02:23:24.713Z,7.06
2022-09-03T02:28:27.979Z,7.00
2022-09-03T02:33:27.374Z,6.92
2022-09-03T02:38:29.465Z,6.90
2022-09-03T02:43:41.096Z,6.90
2022-09-03T02:48:41.752Z,6.80
2022-09-03T02:53:40.905Z,6.80
2022-09-03T02:58:41.535Z,6.74
2022-09-03T03:03:40.204Z,6.70
2022-09-03T03:08:43.332Z,6.70
2022-09-03T03:13:43.688Z,6.70
2022-09-03T03:18:46.507Z,6.70
2022-09-03T03:23:48.342Z,6.60
2022-09-03T03:28:49.155Z,6.60
2022-09-03T03:33:55.339Z,6.60
2022-09-03T03:38:59.121Z,6.58
2022-09-03T03:44:01.496Z,6.50
2022-09-03T03:49:01.795Z,6.50
2022-09-03T03:54:05.285Z,6.48
2022-09-03T03:59:05.281Z,6.40
2022-09-03T04:04:06.903Z,6.40
2022-09-03T04:09:06.527Z,6.40
2022-09-03T04:14:07.727Z,6.40
2022-09-03T04:19:06.747Z,6.40
2022-09-03T04:24:07.988Z,6.40
2022-09-03T04:29:10.534Z,6.40
2022-09-03T04:34:10.586Z,6.40
2022-09-03T04:39:09.491Z,6.42
2022-09-03T04:44:09.207Z,6.50
2022-09-03T04:49:09.653Z,6.60
2022-09-03T04:54:10.051Z,6.60
2022-09-03T04:59:11.385Z,6.70
2022-09-03T05:04:11.581Z,6.80
2022-09-03T05:09:10.149Z,6.90
2022-09-03T05:14:11.931Z,7.10
2022-09-03T05:19:12.624Z,7.28
2022-09-03T05:24:16.351Z,7.50
2022-09-03T05:29:16.835Z,7.70
2022-09-03T05:34:24.010Z,7.90
2022-09-03T05:39:23.476Z,8.10
2022-09-03T05:44:26.065Z,8.30
2022-09-03T05:49:24.605Z,8.50
2022-09-03T05:54:23.488Z,8.70
2022-09-03T05:59:22.915Z,8.90
2022-09-03T06:04:22.115Z,9.10
2022-09-03T06:09:23.570Z,9.30
2022-09-03T06:14:23.936Z,9.50
2022-09-03T06:19:23.451Z,9.74
2022-09-03T06:24:27.998Z,10.00
2022-09-03T06:29:27.861Z,10.20
2022-09-03T06:34:27.356Z,10.50
2022-09-03T06:39:27.368Z,10.70
2022-09-03T06:44:26.517Z,11.00
2022-09-03T06:49:26.466Z,11.30
2022-09-03T06:54:25.314Z,11.50
2022-09-03T06:59:24.530Z,11.80
2022-09-03T07:04:26.041Z,12.10
2022-09-03T07:09:26.384Z,12.40
2022-09-03T07:14:26.003Z,12.70
2022-09-03T07:19:27.166Z,13.00
2022-09-03T07:24:25.354Z,13.20
2022-09-03T07:29:25.855Z,13.50
2022-09-03T07:34:26.476Z,13.80
2022-09-03T07:39:25.900Z,14.10
2022-09-03T07:44:25.277Z,14.40
2022-09-03T07:49:24.775Z,14.70
2022-09-03T07:54:24.258Z,14.90
2022-09-03T07:59:24.756Z,15.20
2022-09-03T08:04:23.800Z,15.48
2022-09-03T08:09:23.266Z,15.70
2022-09-03T08:14:24.987Z,16.00
2022-09-03T08:19:24.045Z,16.20
2022-09-03T08:24:25.070Z,16.40
2022-09-03T08:29:24.962Z,16.70
2022-09-03T08:34:24.611Z,16.90
2022-09-03T08:39:23.867Z,17.10
2022-09-03T08:44:32.632Z,17.30
2022-09-03T08:49:42.227Z,17.58
2022-09-03T08:54:41.727Z,17.82
2022-09-03T08:59:40.967Z,18.10
2022-09-03T09:05:00.066Z,18.30
2022-09-03T09:10:15.526Z,18.50
2022-09-03T09:15:29.766Z,18.70
2022-09-03T09:20:38.840Z,18.90
2022-09-03T09:25:47.216Z,19.20
2022-09-03T09:30:49.207Z,19.40
2022-09-03T09:35:49.424Z,19.80
2022-09-03T09:40:49.238Z,20.24
2022-09-03T09:45:50.306Z,20.66
2022-09-03T09:50:48.693Z,21.12
2022-09-03T09:56:03.066Z,21.30
2022-09-03T10:01:13.280Z,21.20
2022-09-03T10:06:35.215Z,21.30
2022-09-03T10:11:39.113Z,21.90
2022-09-03T10:16:49.247Z,22.50
2022-09-03T10:21:56.454Z,23.10
2022-09-03T10:26:56.312Z,23.40
2022-09-03T10:32:12.877Z,23.24
2022-09-03T10:37:27.725Z,23.50
2022-09-03T10:42:48.048Z,23.76
2022-09-03T10:48:13.086Z,24.34
2022-09-03T10:53:22.292Z,24.90
2022-09-03T10:58:49.443Z,25.40
2022-09-03T11:03:57.236Z,25.80
2022-09-03T11:09:16.760Z,26.24
2022-09-03T11:14:26.347Z,26.70
2022-09-03T11:19:37.930Z,26.90
2022-09-03T11:24:42.001Z,27.10
2022-09-03T11:29:52.736Z,27.24
2022-09-03T11:34:54.734Z,27.40
2022-09-03T11:40:09.291Z,27.50
2022-09-03T11:45:39.294Z,27.60
2022-09-03T11:50:39.207Z,27.70
2022-09-03T11:55:56.491Z,27.90
2022-09-03T12:00:55.778Z,28.32
2022-09-03T12:06:29.149Z,28.80
2022-09-03T12:11:55.862Z,28.78
2022-09-03T12:17:15.593Z,29.10
2022-09-03T12:22:21.285Z,29.52
2022-09-03T12:27:26.408Z,29.90
2022-09-03T12:32:26.481Z,30.36
2022-09-03T12:43:37.111Z,31.00
2022-09-03T12:48:20.232Z,31.16
2022-09-03T12:53:26.357Z,31.32
2022-09-03T12:58:38.262Z,31.32
2022-09-03T13:03:52.306Z,31.30
2022-09-03T13:08:56.447Z,31.30
2022-09-03T13:14:06.616Z,31.72
2022-09-03T13:19:16.541Z,32.00
2022-09-03T13:24:40.770Z,32.10
2022-09-03T13:30:07.222Z,32.10
2022-09-03T13:35:25.294Z,32.20
2022-09-03T13:40:37.882Z,32.40
2022-09-03T13:45:46.898Z,32.50
2022-09-03T13:50:59.075Z,32.70
2022-09-03T13:56:06.116Z,32.70
2022-09-03T14:01:21.386Z,32.70
2022-09-03T14:06:38.464Z,32.90
2022-09-03T14:11:50.289Z,32.90
2022-09-03T14:17:00.804Z,33.00
2022-09-03T14:22:07.241Z,33.00
2022-09-03T14:27:07.807Z,32.50
2022-09-03T14:32:29.691Z,32.10
2022-09-03T14:37:53.050Z,32.00
2022-09-03T14:43:09.520Z,31.70
2022-09-03T14:48:52.912Z,31.40
2022-09-03T14:54:29.762Z,31.10
2022-09-03T15:00:12.044Z,30.90
2022-09-03T15:05:31.634Z,30.70
2022-09-03T15:10:41.679Z,30.50
2022-09-03T15:16:06.677Z,30.20
2022-09-03T15:21:27.500Z,29.90
2022-09-03T15:26:58.844Z,29.46
2022-09-03T15:32:11.613Z,28.86
2022-09-03T15:37:21.990Z,28.10
2022-09-03T15:42:29.536Z,27.50
2022-09-03T15:47:54.481Z,27.06
2022-09-03T15:53:07.895Z,26.78
2022-09-03T15:58:22.385Z,26.60
2022-09-03T16:03:40.229Z,26.70
2022-09-03T16:08:51.819Z,26.80
2022-09-03T16:14:06.023Z,26.90
2022-09-03T16:19:21.422Z,26.90
2022-09-03T16:24:31.104Z,27.00
2022-09-03T16:29:34.789Z,27.00
2022-09-03T16:34:50.548Z,26.90
2022-09-03T16:40:00.820Z,26.80
2022-09-03T16:45:16.127Z,26.40
2022-09-03T16:50:33.370Z,26.20
2022-09-03T16:55:57.343Z,25.90
2022-09-03T17:01:13.351Z,25.24
2022-09-03T17:06:41.393Z,24.50
2022-09-03T17:12:00.870Z,23.74
2022-09-03T17:17:12.733Z,23.04
2022-09-03T17:22:39.054Z,22.40
2022-09-03T17:28:02.832Z,21.70
2022-09-03T17:33:45.070Z,21.20
2022-09-03T17:39:19.940Z,20.70
2022-09-03T17:44:35.479Z,20.20
2022-09-03T17:49:45.355Z,19.80
2022-09-03T17:54:48.801Z,19.42
2022-09-03T17:59:56.942Z,19.04
2022-09-03T18:05:04.834Z,18.70
2022-09-03T18:10:12.155Z,18.32
2022-09-03T18:15:22.515Z,18.00
2022-09-03T18:20:42.745Z,17.70
2022-09-03T18:26:04.899Z,17.40
2022-09-03T18:31:20.877Z,17.20
2022-09-03T18:36:37.335Z,16.94
2022-09-03T18:42:16.006Z,16.80
2022-09-03T18:48:05.463Z,16.60
2022-09-03T18:53:37.902Z,16.30
2022-09-03T18:59:09.293Z,16.10
2022-09-03T19:04:40.148Z,15.84
2022-09-03T19:10:12.869Z,15.60
2022-09-03T19:15:39.332Z,15.46
2022-09-03T19:21:03.753Z,15.30
2022-09-03T19:26:34.287Z,15.08
2022-09-03T19:32:08.459Z,14.90
2022-09-03T19:37:34.408Z,14.70
2022-09-03T19:43:10.552Z,14.58
2022-09-03T19:48:47.185Z,14.40
2022-09-03T19:54:06.450Z,14.30
2022-09-03T19:59:35.967Z,14.20
2022-09-03T20:04:58.771Z,14.12
2022-09-03T20:10:19.629Z,14.10
2022-09-03T20:15:20.027Z,14.00
2022-09-03T20:20:32.890Z,13.90
2022-09-03T20:25:51.781Z,13.80
2022-09-03T20:31:03.489Z,13.70
2022-09-03T20:36:18.750Z,13.68
2022-09-03T20:41:30.355Z,13.60
2022-09-03T20:46:52.405Z,13.50
2022-09-03T20:52:04.268Z,13.40
2022-09-03T20:57:34.792Z,13.20
2022-09-03T21:02:58.481Z,13.00
2022-09-03T21:08:14.116Z,12.90
2022-09-03T21:13:22.995Z,12.60
2022-09-03T21:18:36.728Z,12.38
2022-09-03T21:23:47.687Z,12.10
2022-09-03T21:28:56.696Z,11.90
2022-09-03T21:34:07.129Z,11.60
2022-09-03T21:39:16.042Z,11.40
2022-09-03T21:44:25.135Z,11.10
2022-09-03T21:49:31.174Z,10.90
2022-09-03T21:54:34.876Z,10.80
2022-09-03T22:00:09.914Z,10.70
2022-09-03T22:05:12.822Z,10.56
2022-09-03T22:10:22.626Z,10.40
2022-09-03T22:15:24.927Z,10.40
2022-09-03T22:20:24.300Z,10.30
2022-09-03T22:25:34.189Z,10.20
2022-09-03T22:30:44.282Z,10.10
2022-09-03T22:36:17.839Z,10.00
2022-09-03T22:41:35.239Z,9.90
2022-09-03T22:46:47.482Z,9.80
2022-09-03T22:52:11.123Z,9.70
2022-09-03T22:57:12.391Z,9.68
2022-09-03T23:02:19.837Z,9.60
2022-09-03T23:07:28.515Z,9.60
2022-09-03T23:12:38.736Z,9.60
2022-09-03T23:17:45.532Z,9.60
2022-09-03T23:22:51.609Z,9.50
2022-09-03T23:27:58.817Z,9.48
2022-09-03T23:33:01.563Z,9.40
2022-09-03T23:38:18.429Z,9.40
2022-09-03T23:43:51.728Z,9.30
2022-09-03T23:49:26.935Z,9.30
2022-09-03T23:54:39.160Z,9.30
